Time;durP1;ratioP1;P1;durP2;ratioP2;P2;SDS_P1;SDS_P2;PMS_P1;PMS_P2;Temp;Humidity;BMP_temperature;BMP_pressure;BME280_temperature;BME280_humidity;BME280_pressure;Samples;Min_cycle;Max_cycle;Signal;HPM_P1;HPM_P2
2023/07/29 00:00:45;;;;;;;7.63;5.90;;;;;;;17.52;81.24;95904.16;5047608;28;20715;-70
2023/07/29 00:03:10;;;;;;;11.17;6.00;;;;;;;17.43;81.72;95893.44;5047538;28;20217;-71
2023/07/29 00:05:39;;;;;;;10.40;5.00;;;;;;;17.54;81.13;95896.09;5047586;28;20202;-71
2023/07/29 00:08:05;;;;;;;7.37;4.87;;;;;;;17.61;80.48;95893.78;5047643;28;20267;-70
2023/07/29 00:10:32;;;;;;;10.03;5.73;;;;;;;17.61;80.76;95891.97;5047285;28;20409;-71
2023/07/29 00:12:58;;;;;;;8.40;4.70;;;;;;;17.68;80.50;95892.34;5047605;28;20768;-71
2023/07/29 00:15:23;;;;;;;9.60;6.10;;;;;;;17.47;81.83;95885.13;5047453;28;20439;-70
2023/07/29 00:17:48;;;;;;;8.60;6.17;;;;;;;17.48;81.78;95881.53;5047836;28;20175;-70
2023/07/29 00:20:15;;;;;;;7.13;6.03;;;;;;;17.51;81.51;95885.72;5046959;28;20183;-70
2023/07/29 00:22:40;;;;;;;5.87;5.27;;;;;;;17.49;81.95;95888.50;5047584;28;20229;-71
2023/07/29 00:25:06;;;;;;;10.20;6.47;;;;;;;17.59;81.15;95885.13;5047453;28;20433;-71
2023/07/29 00:27:31;;;;;;;7.27;6.00;;;;;;;17.67;80.67;95886.19;5047670;28;20644;-70
2023/07/29 00:29:57;;;;;;;6.50;5.57;;;;;;;17.77;80.40;95875.66;5041716;28;20195;-70
2023/07/29 00:32:22;;;;;;;6.53;5.63;;;;;;;17.77;80.09;95880.97;5027737;28;20625;-70
2023/07/29 00:34:47;;;;;;;9.93;6.50;;;;;;;17.73;80.32;95872.41;5027535;28;20187;-71
2023/07/29 00:37:13;;;;;;;9.90;5.90;;;;;;;17.70;80.50;95875.31;5027584;28;20191;-71
2023/07/29 00:39:38;;;;;;;10.67;5.47;;;;;;;17.55;80.91;95880.06;5027229;28;20953;-72
2023/07/29 00:42:04;;;;;;;11.60;6.30;;;;;;;17.65;80.44;95881.97;5037491;28;20210;-71
2023/07/29 00:44:31;;;;;;;10.10;6.67;;;;;;;17.60;80.66;95868.22;5047507;28;20758;-72
2023/07/29 00:47:00;;;;;;;9.60;6.40;;;;;;;17.54;80.53;95870.41;5047214;28;20414;-75
2023/07/29 00:49:26;;;;;;;6.43;5.73;;;;;;;17.42;81.16;95870.53;5047155;28;20440;-72
2023/07/29 00:51:51;;;;;;;6.87;6.27;;;;;;;17.32;81.73;95859.81;5039413;28;20499;-71
2023/07/29 00:54:17;;;;;;;6.97;6.27;;;;;;;17.25;81.83;95862.13;5038097;28;20218;-71
2023/07/29 00:56:42;;;;;;;10.10;6.27;;;;;;;17.26;81.75;95858.50;5032035;28;20175;-71
2023/07/29 00:59:08;;;;;;;8.67;6.53;;;;;;;17.20;82.26;95856.34;5036328;28;20179;-76
2023/07/29 01:01:33;;;;;;;6.57;5.87;;;;;;;17.29;82.05;95860.91;5039683;28;20183;-71
2023/07/29 01:03:59;;;;;;;8.30;6.40;;;;;;;17.34;81.40;95852.59;5037862;28;20174;-72
2023/07/29 01:06:48;;;;;;;8.40;6.57;;;;;;;17.37;81.22;95857.66;5030900;28;20583;-71
2023/07/29 01:09:40;;;;;;;8.60;7.70;;;;;;;17.36;81.59;95855.94;5030577;28;20164;-70
2023/07/29 01:12:11;;;;;;;10.60;6.93;;;;;;;17.40;81.02;95852.09;5010959;28;20896;-72
2023/07/29 01:14:50;;;;;;;8.33;6.40;;;;;;;17.44;80.51;95845.59;5030541;28;20930;-72
2023/07/29 01:17:22;;;;;;;7.70;6.87;;;;;;;17.45;80.84;95854.38;5030712;28;20444;-70
2023/07/29 01:20:13;;;;;;;10.47;8.20;;;;;;;17.38;80.94;95854.03;5039644;28;20851;-70
2023/07/29 01:22:39;;;;;;;12.00;7.60;;;;;;;17.31;81.12;95850.16;5050211;28;20465;-71
2023/07/29 01:25:05;;;;;;;10.80;7.90;;;;;;;17.20;81.56;95843.09;5050091;28;20429;-71
2023/07/29 01:27:31;;;;;;;17.97;9.47;;;;;;;17.10;82.47;95845.63;5050072;28;20423;-70
2023/07/29 01:29:57;;;;;;;18.33;8.90;;;;;;;17.13;82.25;95848.03;5049603;28;20409;-69
2023/07/29 01:32:38;;;;;;;11.63;8.13;;;;;;;17.18;81.73;95845.00;5050142;28;20237;-70
2023/07/29 01:35:15;;;;;;;13.20;7.53;;;;;;;17.26;81.43;95850.53;5049982;28;20429;-72
2023/07/29 01:37:41;;;;;;;10.50;8.03;;;;;;;17.32;81.35;95854.53;5050115;28;20417;-71
2023/07/29 01:40:09;;;;;;;8.73;7.83;;;;;;;17.44;80.48;95847.41;5049810;28;20410;-71
2023/07/29 01:42:34;;;;;;;9.70;7.20;;;;;;;17.38;80.95;95846.06;5050071;28;20449;-72
2023/07/29 01:45:00;;;;;;;10.37;7.50;;;;;;;17.38;80.28;95846.06;5050016;28;20425;-70
2023/07/29 01:47:25;;;;;;;7.60;6.10;;;;;;;17.37;80.64;95844.38;5050214;28;20167;-70
2023/07/29 01:49:51;;;;;;;8.37;7.43;;;;;;;17.43;80.42;95835.91;5049575;28;20648;-71
2023/07/29 01:52:16;;;;;;;9.77;7.00;;;;;;;17.38;80.50;95847.88;5049876;28;20159;-72
2023/07/29 01:54:42;;;;;;;8.60;6.60;;;;;;;17.33;80.89;95837.63;5049699;28;20274;-69
2023/07/29 01:57:07;;;;;;;8.93;6.10;;;;;;;17.37;80.19;95844.38;5033626;28;20171;-70
2023/07/29 01:59:32;;;;;;;9.53;7.70;;;;;;;17.40;80.19;95840.66;5029656;28;20172;-71
2023/07/29 02:01:58;;;;;;;8.90;6.80;;;;;;;17.37;80.41;95846.22;5030097;28;20872;-70
2023/07/29 02:04:23;;;;;;;9.53;6.43;;;;;;;17.38;80.35;95840.75;5030405;28;20999;-70
2023/07/29 02:06:48;;;;;;;10.00;7.13;;;;;;;17.39;80.22;95837.16;5029985;28;20183;-73
2023/07/29 02:09:14;;;;;;;10.27;7.67;;;;;;;17.39;79.94;95845.13;5042338;28;20178;-73
2023/07/29 02:11:39;;;;;;;10.53;7.50;;;;;;;17.38;80.22;95838.09;5048612;28;20171;-72
2023/07/29 02:14:05;;;;;;;12.27;7.73;;;;;;;17.30;80.34;95833.41;5037147;28;20218;-71
2023/07/29 02:16:32;;;;;;;10.23;7.03;;;;;;;17.37;80.54;95825.81;5049552;28;20187;-70
2023/07/29 02:18:57;;;;;;;13.20;9.10;;;;;;;17.41;80.28;95821.09;5038138;28;20190;-70
2023/07/29 02:21:23;;;;;;;7.90;6.77;;;;;;;17.41;80.20;95835.22;5029441;28;20500;-70
2023/07/29 02:23:48;;;;;;;8.63;7.70;;;;;;;17.44;80.35;95827.00;5029305;28;20246;-69
2023/07/29 02:26:14;;;;;;;9.67;8.23;;;;;;;17.46;80.10;95826.91;5029217;28;20195;-70
2023/07/29 02:28:39;;;;;;;8.77;7.23;;;;;;;17.42;80.19;95825.44;5029106;28;20184;-72
2023/07/29 02:31:24;;;;;;;16.57;8.20;;;;;;;17.40;80.37;95824.72;5033284;28;20195;-71
2023/07/29 02:33:50;;;;;;;7.97;6.73;;;;;;;17.38;80.56;95819.53;5029324;28;20179;-71
2023/07/29 02:36:16;;;;;;;9.40;8.47;;;;;;;17.30;80.53;95820.16;5029063;28;20428;-71
2023/07/29 02:38:42;;;;;;;7.67;6.97;;;;;;;17.25;80.59;95824.16;5028673;28;20229;-72
2023/07/29 02:41:12;;;;;;;12.93;8.00;;;;;;;17.29;80.84;95822.94;5028944;28;20593;-71
2023/07/29 02:43:37;;;;;;;8.93;8.03;;;;;;;17.23;81.25;95818.97;5028858;28;20664;-69
2023/07/29 02:46:03;;;;;;;11.37;8.40;;;;;;;17.28;81.08;95831.84;5029060;28;20438;-69
2023/07/29 02:48:28;;;;;;;8.60;7.70;;;;;;;17.23;80.92;95826.91;5028610;28;20171;-69
2023/07/29 02:50:54;;;;;;;8.63;7.70;;;;;;;17.25;80.90;95825.00;5028458;28;20182;-71
2023/07/29 02:53:21;;;;;;;9.73;7.70;;;;;;;17.20;81.23;95819.22;5028910;28;20171;-70
2023/07/29 02:55:47;;;;;;;8.50;7.43;;;;;;;17.13;82.18;95820.66;5028783;28;20438;-71
2023/07/29 02:58:12;;;;;;;7.50;6.80;;;;;;;17.13;81.89;95826.81;5028674;28;20464;-69
2023/07/29 03:00:38;;;;;;;8.57;6.60;;;;;;;17.12;82.09;95813.66;5028286;28;20263;-72
2023/07/29 03:03:04;;;;;;;8.17;7.37;;;;;;;17.16;81.64;95816.94;5028435;28;20314;-71
2023/07/29 03:05:29;;;;;;;7.97;7.17;;;;;;;17.09;81.79;95820.06;5028485;28;20942;-71
2023/07/29 03:07:55;;;;;;;11.83;6.67;;;;;;;17.21;81.42;95820.06;5028648;28;20171;-70
2023/07/29 03:10:20;;;;;;;7.80;7.00;;;;;;;17.13;81.49;95805.59;5028434;28;20176;-72
2023/07/29 03:12:46;;;;;;;7.10;6.20;;;;;;;17.17;81.50;95802.69;5028497;28;20171;-72
2023/07/29 03:15:14;;;;;;;10.23;7.93;;;;;;;17.19;81.54;95811.38;5027624;28;20191;-76
2023/07/29 03:17:40;;;;;;;12.10;7.70;;;;;;;17.16;81.42;95812.47;5028678;28;20179;-70
2023/07/29 03:20:06;;;;;;;10.50;7.60;;;;;;;17.14;81.54;95815.22;5028162;28;20417;-71
2023/07/29 03:22:31;;;;;;;11.83;7.20;;;;;;;17.10;81.63;95810.28;5028501;28;20235;-72
2023/07/29 03:24:56;;;;;;;11.33;8.30;;;;;;;17.05;81.68;95808.00;5028999;28;20465;-71
2023/07/29 03:27:22;;;;;;;11.30;9.43;;;;;;;17.01;81.93;95798.63;5028597;28;20175;-71
2023/07/29 03:29:47;;;;;;;8.83;7.10;;;;;;;16.97;82.48;95789.22;5031999;28;20166;-71
2023/07/29 03:32:13;;;;;;;10.53;7.67;;;;;;;16.93;82.61;95785.13;5047949;28;20178;-72
2023/07/29 03:34:40;;;;;;;12.17;8.60;;;;;;;17.04;82.40;95789.59;5047723;28;20641;-71
2023/07/29 03:37:05;;;;;;;18.90;9.30;;;;;;;17.05;82.56;95788.59;5047823;28;20175;-69
2023/07/29 03:39:31;;;;;;;14.77;9.13;;;;;;;17.09;81.83;95780.28;5047443;28;20443;-70
2023/07/29 03:41:57;;;;;;;18.60;9.50;;;;;;;17.10;81.79;95782.00;5047926;28;20195;-72
2023/07/29 03:44:22;;;;;;;26.97;11.87;;;;;;;17.09;81.86;95777.66;5047906;28;20171;-71
2023/07/29 03:46:48;;;;;;;10.47;9.07;;;;;;;17.12;81.88;95777.38;5048013;28;20232;-70
2023/07/29 03:49:13;;;;;;;16.50;8.10;;;;;;;17.17;81.84;95770.88;5047806;28;20914;-72
2023/07/29 03:51:39;;;;;;;12.47;8.30;;;;;;;17.12;81.76;95776.56;5048252;28;20312;-71
2023/07/29 03:54:04;;;;;;;10.00;8.33;;;;;;;17.17;81.76;95777.03;5047390;28;20198;-70
2023/07/29 03:56:29;;;;;;;11.70;8.20;;;;;;;17.17;81.46;95776.19;5047582;28;20229;-71
2023/07/29 03:59:03;;;;;;;9.60;7.90;;;;;;;17.14;81.37;95764.03;5047465;28;20174;-72
2023/07/29 04:01:29;;;;;;;9.57;8.27;;;;;;;17.14;81.69;95762.19;5047653;28;20697;-72
2023/07/29 04:03:54;;;;;;;14.20;8.40;;;;;;;17.22;80.96;95761.59;5047638;28;20409;-68
2023/07/29 04:06:20;;;;;;;9.57;8.03;;;;;;;17.23;80.94;95767.75;5047417;28;20252;-70
2023/07/29 04:08:46;;;;;;;9.27;8.27;;;;;;;17.19;81.19;95774.25;5027594;28;20175;-72
2023/07/29 04:11:11;;;;;;;20.30;9.10;;;;;;;17.13;81.29;95760.53;5027535;28;20537;-72
2023/07/29 04:13:37;;;;;;;20.60;8.60;;;;;;;17.18;81.33;95765.47;5033159;28;20179;-71
2023/07/29 04:16:03;;;;;;;18.87;9.97;;;;;;;17.20;81.03;95770.66;5035285;28;20248;-72
2023/07/29 04:18:29;;;;;;;27.03;11.00;;;;;;;17.27;81.18;95777.16;5045917;28;20437;-70
2023/07/29 04:20:54;;;;;;;20.50;11.10;;;;;;;17.09;82.05;95771.50;5036296;28;20421;-69
2023/07/29 04:23:20;;;;;;;15.13;7.70;;;;;;;17.03;81.81;95779.94;5048542;28;20202;-71
2023/07/29 04:25:45;;;;;;;13.47;7.47;;;;;;;16.97;82.44;95777.78;5040756;28;20652;-70
2023/07/29 04:28:10;;;;;;;10.67;8.20;;;;;;;17.03;81.69;95779.94;5042867;28;20207;-71
2023/07/29 04:30:36;;;;;;;8.30;7.07;;;;;;;16.93;82.42;95785.97;5041655;28;20217;-73
2023/07/29 04:33:01;;;;;;;9.40;8.00;;;;;;;16.93;82.48;95785.97;5038896;28;20172;-72
2023/07/29 04:35:26;;;;;;;11.90;7.10;;;;;;;16.92;82.40;95780.81;5051754;28;20656;-72
2023/07/29 04:37:52;;;;;;;11.13;7.80;;;;;;;17.07;82.18;95792.81;5047136;28;20284;-70
2023/07/29 04:40:17;;;;;;;9.10;7.90;;;;;;;17.16;81.42;95796.56;5031082;28;20182;-71
2023/07/29 04:42:42;;;;;;;15.27;9.30;;;;;;;17.18;81.81;95789.34;5031183;28;20206;-71
2023/07/29 04:45:08;;;;;;;14.33;9.47;;;;;;;17.16;81.80;95791.25;5031735;28;20713;-72
2023/07/29 04:47:33;;;;;;;9.77;8.80;;;;;;;17.17;81.72;95782.31;5031175;28;20236;-70
2023/07/29 04:49:59;;;;;;;11.10;8.00;;;;;;;17.11;81.98;95791.63;5038283;28;20261;-70
2023/07/29 04:52:24;;;;;;;14.30;8.70;;;;;;;17.14;82.07;95796.66;5051283;28;20166;-70
2023/07/29 04:54:50;;;;;;;12.53;8.77;;;;;;;17.08;82.33;95791.03;5050857;28;20300;-71
2023/07/29 04:57:16;;;;;;;13.07;8.60;;;;;;;17.14;81.96;95778.09;5050938;28;20308;-69
2023/07/29 04:59:41;;;;;;;12.90;8.77;;;;;;;17.17;81.70;95765.56;5050607;28;20406;-69
2023/07/29 05:02:06;;;;;;;25.23;8.43;;;;;;;17.12;82.15;95782.69;5050568;28;20252;-69
2023/07/29 05:04:32;;;;;;;8.87;8.03;;;;;;;17.18;82.51;95776.06;5050207;28;20218;-71
2023/07/29 05:06:57;;;;;;;17.30;8.90;;;;;;;17.25;81.88;95781.72;5050553;28;20163;-70
2023/07/29 05:09:23;;;;;;;24.57;10.03;;;;;;;17.37;81.45;95774.59;5050494;28;20280;-69
2023/07/29 05:11:49;;;;;;;14.30;8.73;;;;;;;17.34;81.32;95767.72;5050236;28;20167;-70
2023/07/29 05:14:15;;;;;;;14.30;8.10;;;;;;;17.43;80.95;95766.97;5050431;28;20409;-71
2023/07/29 05:16:40;;;;;;;11.97;7.90;;;;;;;17.50;80.79;95769.97;5050386;28;20220;-71
2023/07/29 05:19:06;;;;;;;13.30;8.27;;;;;;;17.60;80.50;95773.56;5049828;28;20417;-70
2023/07/29 05:21:31;;;;;;;17.20;7.80;;;;;;;17.60;80.55;95785.97;5050241;28;20167;-69
2023/07/29 05:23:57;;;;;;;12.20;7.90;;;;;;;17.72;79.99;95785.81;5050306;28;20222;-71
2023/07/29 05:26:23;;;;;;;22.97;8.53;;;;;;;17.84;79.62;95783.16;5043576;28;20191;-69
2023/07/29 05:28:48;;;;;;;11.23;7.60;;;;;;;17.87;79.47;95780.25;5030035;28;20645;-71
2023/07/29 05:31:13;;;;;;;11.00;8.83;;;;;;;17.85;79.48;95783.00;5046120;28;20420;-70
2023/07/29 05:33:39;;;;;;;16.27;9.53;;;;;;;17.84;79.82;95785.81;5050042;28;20198;-70
2023/07/29 05:36:05;;;;;;;17.43;10.20;;;;;;;17.73;80.54;95786.66;5050165;28;20205;-71
2023/07/29 05:38:30;;;;;;;23.17;11.97;;;;;;;17.78;80.40;95785.28;5048827;28;20282;-69
2023/07/29 05:40:56;;;;;;;13.87;9.30;;;;;;;17.84;80.44;95791.13;5049853;28;20171;-71
2023/07/29 05:43:21;;;;;;;22.90;10.10;;;;;;;17.80;80.74;95787.00;5051195;28;20190;-69
2023/07/29 05:45:47;;;;;;;17.00;9.00;;;;;;;17.85;80.45;95790.97;5049828;28;20619;-70
2023/07/29 05:48:12;;;;;;;17.03;9.43;;;;;;;17.77;80.83;95790.75;5049969;28;20174;-69
2023/07/29 05:50:37;;;;;;;21.83;8.67;;;;;;;17.75;80.90;95795.34;5049434;28;20174;-68
2023/07/29 05:53:03;;;;;;;12.33;8.10;;;;;;;17.72;81.05;95793.78;5049733;28;20186;-67
2023/07/29 05:55:29;;;;;;;9.70;8.70;;;;;;;17.73;81.33;95787.50;5049517;28;20325;-69
2023/07/29 05:57:54;;;;;;;11.17;8.13;;;;;;;17.71;81.39;95793.91;5049636;28;20179;-72
2023/07/29 06:00:20;;;;;;;14.77;9.00;;;;;;;17.77;81.09;95796.06;5049899;28;20178;-69
2023/07/29 06:02:45;;;;;;;19.50;9.23;;;;;;;17.74;81.35;95791.84;5049311;28;20202;-70
2023/07/29 06:05:11;;;;;;;13.10;9.07;;;;;;;17.74;81.36;95790.97;5049513;28;20187;-69
2023/07/29 06:07:36;;;;;;;9.50;7.80;;;;;;;17.89;80.72;95797.72;5049319;28;20177;-69
2023/07/29 06:10:02;;;;;;;12.47;7.20;;;;;;;18.02;80.37;95791.38;5048911;28;20174;-69
2023/07/29 06:12:27;;;;;;;10.63;7.03;;;;;;;18.20;79.59;95798.66;5049397;28;20163;-69
2023/07/29 06:14:53;;;;;;;11.63;7.30;;;;;;;18.67;78.02;95790.28;5048990;28;20194;-70
2023/07/29 06:17:18;;;;;;;9.00;6.73;;;;;;;18.56;77.92;95795.66;5049153;28;20487;-69
2023/07/29 06:19:44;;;;;;;7.80;7.00;;;;;;;18.61;77.38;95788.13;5048634;28;20244;-70
2023/07/29 06:22:09;;;;;;;13.70;8.43;;;;;;;18.44;78.24;95799.38;5048718;28;20210;-70
2023/07/29 06:24:35;;;;;;;10.30;6.57;;;;;;;18.53;78.09;95795.94;5048794;28;20340;-69
2023/07/29 06:27:00;;;;;;;23.00;8.57;;;;;;;18.81;77.26;95807.72;5052474;28;20171;-69
2023/07/29 06:29:26;;;;;;;11.27;7.33;;;;;;;19.00;76.43;95804.31;5031017;28;20261;-69
2023/07/29 06:31:51;;;;;;;7.57;6.87;;;;;;;18.86;76.83;95804.69;5028508;28;20746;-72
2023/07/29 06:34:17;;;;;;;14.37;7.00;;;;;;;18.89;76.97;95802.56;5033500;28;20271;-72
2023/07/29 06:36:43;;;;;;;11.73;6.70;;;;;;;19.04;76.41;95801.25;5046297;28;20203;-72
2023/07/29 06:39:09;;;;;;;10.07;7.13;;;;;;;19.42;75.43;95794.38;5035306;28;21101;-71
2023/07/29 06:41:35;;;;;;;8.93;5.80;;;;;;;20.02;72.45;95794.31;5047263;28;20527;-70
2023/07/29 06:44:00;;;;;;;21.17;7.30;;;;;;;19.97;72.71;95785.09;5048507;28;20173;-70
2023/07/29 06:46:26;;;;;;;15.67;8.20;;;;;;;20.22;71.74;95778.31;5051636;28;20679;-69
2023/07/29 06:48:51;;;;;;;7.67;5.77;;;;;;;20.56;70.96;95781.41;5052032;28;20166;-72
2023/07/29 06:51:16;;;;;;;12.97;6.40;;;;;;;21.01;69.50;95782.50;5049718;28;20236;-72
2023/07/29 06:53:42;;;;;;;8.00;6.00;;;;;;;21.30;67.99;95783.19;5047185;28;20849;-70
2023/07/29 06:56:07;;;;;;;6.07;4.90;;;;;;;21.11;68.18;95784.13;5039354;28;20277;-69
2023/07/29 06:58:33;;;;;;;7.37;5.77;;;;;;;21.17;68.38;95787.22;5043758;28;20629;-70
2023/07/29 07:00:58;;;;;;;10.90;6.33;;;;;;;20.79;69.70;95794.38;5044524;28;20186;-69
2023/07/29 07:03:23;;;;;;;13.40;5.50;;;;;;;20.55;70.72;95794.81;5046293;28;20226;-69
2023/07/29 07:05:50;;;;;;;11.00;5.17;;;;;;;20.38;71.26;95802.56;5036809;28;20195;-71
2023/07/29 07:08:15;;;;;;;9.00;5.50;;;;;;;20.97;69.48;95795.28;5045627;28;20232;-70
2023/07/29 07:10:40;;;;;;;9.83;5.13;;;;;;;21.74;66.62;95782.56;5034214;28;20823;-70
2023/07/29 07:13:06;;;;;;;6.13;4.87;;;;;;;21.88;66.06;95773.19;5041680;28;20769;-69
2023/07/29 07:15:31;;;;;;;7.90;5.10;;;;;;;22.00;65.86;95774.63;5050216;28;20675;-70
2023/07/29 07:17:57;;;;;;;7.30;4.50;;;;;;;22.18;65.22;95785.28;5044010;28;20202;-70
2023/07/29 07:20:22;;;;;;;6.23;4.80;;;;;;;22.35;64.71;95779.13;5039566;28;20174;-70
2023/07/29 07:22:48;;;;;;;9.53;4.93;;;;;;;22.31;64.79;95779.59;5036555;28;20863;-71
2023/07/29 07:25:13;;;;;;;5.93;4.60;;;;;;;22.40;64.42;95776.84;5039833;28;20245;-71
2023/07/29 07:27:39;;;;;;;13.40;4.90;;;;;;;22.24;64.73;95779.38;5047259;28;20202;-70
2023/07/29 07:30:05;;;;;;;7.00;4.93;;;;;;;22.07;65.51;95781.03;5049310;28;20174;-67
2023/07/29 07:32:30;;;;;;;6.80;5.47;;;;;;;21.80;66.44;95784.59;5036807;28;20178;-67
2023/07/29 07:34:55;;;;;;;5.87;4.27;;;;;;;22.06;66.10;95776.66;5044203;28;20446;-66
2023/07/29 07:37:21;;;;;;;6.07;4.80;;;;;;;22.32;65.08;95781.25;5038474;28;20176;-66
2023/07/29 07:39:49;;;;;;;5.80;3.80;;;;;;;22.30;65.45;95768.06;5042087;28;20184;-74
2023/07/29 07:42:15;;;;;;;7.27;4.50;;;;;;;22.52;64.87;95774.75;5030370;28;20211;-65
2023/07/29 07:44:40;;;;;;;6.97;4.20;;;;;;;22.65;64.19;95768.13;5046235;28;20993;-69
2023/07/29 07:47:05;;;;;;;7.13;4.50;;;;;;;22.22;65.24;95764.50;5042540;28;20195;-67
2023/07/29 07:49:31;;;;;;;9.17;4.57;;;;;;;22.09;65.69;95770.22;5028228;28;20184;-68
2023/07/29 07:51:56;;;;;;;11.23;6.10;;;;;;;22.00;66.61;95771.97;5034506;28;20228;-67
2023/07/29 07:54:22;;;;;;;6.97;4.70;;;;;;;22.28;66.07;95775.41;5031309;28;20179;-67
2023/07/29 07:56:47;;;;;;;9.90;5.20;;;;;;;22.28;65.16;95769.22;5047604;28;20205;-67
2023/07/29 07:59:12;;;;;;;10.10;4.53;;;;;;;22.54;64.79;95783.44;5033036;28;20174;-67
2023/07/29 08:01:39;;;;;;;8.00;4.77;;;;;;;22.91;63.18;95763.59;5030382;28;20176;-68
2023/07/29 08:04:04;;;;;;;9.17;4.47;;;;;;;23.02;62.83;95774.06;5034823;28;20882;-68
2023/07/29 08:06:31;;;;;;;5.33;4.73;;;;;;;22.76;63.67;95792.78;5045662;28;20438;-67
2023/07/29 08:08:56;;;;;;;6.37;4.80;;;;;;;22.59;64.07;95805.22;5040806;28;20226;-67
2023/07/29 08:11:22;;;;;;;8.50;4.60;;;;;;;22.51;64.67;95801.63;5045370;28;20915;-69
2023/07/29 08:13:47;;;;;;;6.17;4.27;;;;;;;22.47;64.83;95794.94;5036845;28;20224;-67
2023/07/29 08:16:13;;;;;;;8.30;5.23;;;;;;;22.25;65.58;95796.25;5044339;28;20206;-68
2023/07/29 08:18:38;;;;;;;6.50;4.73;;;;;;;22.03;66.24;95801.03;5047140;28;20212;-67
2023/07/29 08:21:04;;;;;;;10.80;4.33;;;;;;;22.00;66.60;95798.69;5038288;28;20332;-68
2023/07/29 08:23:31;;;;;;;8.20;5.37;;;;;;;21.96;66.72;95794.63;5029228;28;20276;-69
2023/07/29 08:26:02;;;;;;;13.77;5.87;;;;;;;22.29;66.03;95797.63;5029497;28;20429;-69
2023/07/29 08:28:28;;;;;;;6.77;4.50;;;;;;;22.60;65.14;95790.84;5031616;28;20418;-67
2023/07/29 08:30:54;;;;;;;5.97;4.67;;;;;;;22.76;64.17;95806.16;5042557;28;20828;-67
2023/07/29 08:33:19;;;;;;;9.90;4.70;;;;;;;22.70;64.23;95798.78;5053034;28;20421;-69
2023/07/29 08:35:45;;;;;;;14.23;5.40;;;;;;;22.51;64.97;95806.97;5053861;28;20201;-69
2023/07/29 08:38:10;;;;;;;11.33;4.87;;;;;;;22.24;66.52;95803.44;5053699;28;20189;-68
2023/07/29 08:40:40;;;;;;;11.53;5.47;;;;;;;21.95;68.45;95809.81;5068265;28;20635;-68
2023/07/29 08:43:06;;;;;;;6.43;5.03;;;;;;;21.71;69.98;95804.25;5060334;28;20601;-70
2023/07/29 08:45:34;;;;;;;6.73;4.70;;;;;;;;;;5072437;28;20448;-68
2023/07/29 08:48:02;;;;;;;7.33;5.23;;;;;;;21.43;71.64;95798.09;5054946;28;20186;-69
2023/07/29 08:50:29;;;;;;;7.83;5.10;;;;;;;21.30;72.51;95807.22;5050491;28;20436;-69
2023/07/29 08:52:55;;;;;;;11.17;5.70;;;;;;;21.24;72.95;95801.66;5056176;28;21170;-69
2023/07/29 08:55:21;;;;;;;16.73;6.30;;;;;;;21.23;73.78;95808.81;5062898;28;20436;-69
2023/07/29 08:57:47;;;;;;;7.60;5.90;;;;;;;21.13;73.57;95805.34;5058246;28;20412;-69
2023/07/29 09:00:13;;;;;;;11.80;5.60;;;;;;;21.06;74.77;95809.59;5062447;28;20419;-69
2023/07/29 09:02:38;;;;;;;14.67;6.37;;;;;;;21.01;75.40;95818.03;5060562;28;20194;-69
2023/07/29 09:05:05;;;;;;;11.27;5.60;;;;;;;20.97;74.98;95805.13;5069613;28;20953;-68
2023/07/29 09:07:33;;;;;;;9.07;5.57;;;;;;;20.96;74.87;95806.13;5059618;28;20210;-69
2023/07/29 09:09:58;;;;;;;12.03;6.30;;;;;;;21.02;74.99;95798.34;5053395;28;20421;-69
2023/07/29 09:12:24;;;;;;;23.50;9.00;;;;;;;21.08;75.28;95803.13;5055173;28;20575;-68
2023/07/29 09:14:54;;;;;;;16.57;10.33;;;;;;;21.12;75.29;95809.03;5058571;28;20195;-69
2023/07/29 09:17:20;;;;;;;14.97;7.70;;;;;;;21.12;74.39;95811.69;5051767;28;20178;-69
2023/07/29 09:19:50;;;;;;;6.43;5.53;;;;;;;21.02;74.73;95818.88;5060572;28;20427;-69
2023/07/29 09:22:19;;;;;;;7.17;5.20;;;;;;;21.03;74.06;95809.88;5062555;28;20479;-68
2023/07/29 09:24:46;;;;;;;8.37;5.70;;;;;;;21.00;74.33;95811.03;5053365;28;20452;-70
2023/07/29 09:27:27;;;;;;;7.17;5.13;;;;;;;21.06;74.59;95806.91;5058866;28;20426;-69
2023/07/29 09:29:52;;;;;;;7.37;5.67;;;;;;;21.05;74.78;95806.09;5064753;28;20409;-69
2023/07/29 09:32:23;;;;;;;9.00;4.30;;;;;;;21.07;74.36;95796.13;5062087;28;20424;-69
2023/07/29 09:34:49;;;;;;;8.03;4.83;;;;;;;21.14;74.62;95804.34;5051415;28;20687;-69
2023/07/29 09:37:21;;;;;;;7.87;4.80;;;;;;;21.22;74.71;95795.63;5056006;28;20436;-70
2023/07/29 09:39:48;;;;;;;9.50;4.37;;;;;;;21.38;73.96;95784.28;5055802;28;20181;-73
2023/07/29 09:42:21;;;;;;;10.27;4.77;;;;;;;21.42;73.95;95789.22;5058994;28;20472;-69
2023/07/29 09:44:53;;;;;;;7.17;4.63;;;;;;;21.54;73.35;95793.38;5075127;28;20501;-69
2023/07/29 09:47:27;;;;;;;7.37;5.23;;;;;;;21.87;72.99;95795.53;5063335;28;20421;-69
2023/07/29 09:49:53;;;;;;;7.47;6.83;;;;;;;22.04;72.72;95793.84;5057659;28;20416;-68
2023/07/29 09:52:21;;;;;;;8.10;5.17;;;;;;;21.99;72.21;95789.84;5059459;28;20825;-69
2023/07/29 09:54:47;;;;;;;6.10;4.23;;;;;;;22.05;71.86;95791.03;5065606;28;20451;-70
2023/07/29 09:57:18;;;;;;;10.70;4.90;;;;;;;22.49;70.37;95788.44;5052804;28;20420;-69
2023/07/29 09:59:57;;;;;;;12.57;4.77;;;;;;;23.02;69.57;95782.09;5073247;28;20437;-69
2023/07/29 10:02:22;;;;;;;5.90;4.13;;;;;;;23.43;68.20;95784.97;5056752;28;20797;-68
2023/07/29 10:04:49;;;;;;;8.43;4.33;;;;;;;23.56;67.10;95773.78;5049161;28;20444;-71
2023/07/29 10:07:15;;;;;;;10.40;4.43;;;;;;;23.74;66.06;95779.06;5049107;28;20174;-71
2023/07/29 10:09:41;;;;;;;5.90;4.23;;;;;;;23.71;65.32;95778.50;5069744;28;20428;-69
2023/07/29 10:12:07;;;;;;;13.43;8.47;;;;;;;23.68;64.38;95782.34;5068727;28;20417;-69
2023/07/29 10:14:33;;;;;;;12.43;4.50;;;;;;;23.95;64.11;95769.69;5049558;28;21181;-70
2023/07/29 10:17:00;;;;;;;6.63;3.77;;;;;;;24.09;63.32;95771.72;5062829;28;20515;-70
2023/07/29 10:19:30;;;;;;;6.60;3.50;;;;;;;24.10;63.07;95765.38;5063519;28;20190;-67
2023/07/29 10:21:59;;;;;;;4.60;3.80;;;;;;;24.28;63.00;95760.69;5058048;28;20546;-72
2023/07/29 10:24:29;;;;;;;4.60;3.30;;;;;;;24.44;61.96;95754.47;5069412;28;20451;-69
2023/07/29 10:27:00;;;;;;;8.30;4.10;;;;;;;24.64;60.93;95759.53;5075858;28;20425;-71
2023/07/29 10:29:32;;;;;;;14.23;4.17;;;;;;;24.77;60.45;95741.03;5057260;28;20486;-71
2023/07/29 10:32:02;;;;;;;7.10;3.50;;;;;;;24.65;59.98;95753.13;5067192;28;20893;-71
2023/07/29 10:34:28;;;;;;;3.73;3.20;;;;;;;24.38;60.54;95744.44;5057829;28;20833;-71
2023/07/29 10:36:54;;;;;;;4.60;3.80;;;;;;;23.97;60.27;95748.94;5058573;28;20444;-70
2023/07/29 10:39:19;;;;;;;5.33;3.50;;;;;;;23.59;61.34;95743.97;5059109;28;20807;-70
2023/07/29 10:41:54;;;;;;;4.60;3.73;;;;;;;23.34;63.16;95759.16;5066202;28;20469;-73
2023/07/29 10:44:49;;;;;;;12.63;4.50;;;;;;;23.02;63.86;95751.81;5060868;28;20178;-70
2023/07/29 10:47:14;;;;;;;7.90;4.90;;;;;;;22.74;66.95;95769.88;5059943;28;20420;-71
2023/07/29 10:49:41;;;;;;;16.30;5.30;;;;;;;22.55;67.80;95765.56;5058026;28;21035;-69
2023/07/29 10:52:07;;;;;;;8.33;4.40;;;;;;;22.31;68.38;95791.13;5059173;28;20167;-71
2023/07/29 10:54:46;;;;;;;10.57;5.20;;;;;;;22.25;70.25;95793.56;5061257;28;20817;-70
2023/07/29 10:57:34;;;;;;;6.97;4.90;;;;;;;22.26;70.93;95785.41;5057238;28;20204;-71
2023/07/29 11:00:00;;;;;;;6.80;4.43;;;;;;;22.57;69.79;95791.16;5059649;28;20432;-68
2023/07/29 11:02:36;;;;;;;6.33;5.80;;;;;;;22.88;68.16;95777.31;5058941;28;20491;-70
2023/07/29 11:05:17;;;;;;;19.53;5.70;;;;;;;23.06;68.01;95777.28;5059353;28;20525;-68
2023/07/29 11:07:44;;;;;;;14.77;4.67;;;;;;;23.25;67.91;95770.84;5059503;28;20432;-70
2023/07/29 11:10:12;;;;;;;7.60;3.83;;;;;;;23.41;69.12;95767.34;5058050;28;20429;-69
2023/07/29 11:12:51;;;;;;;7.33;4.40;;;;;;;23.52;68.99;95753.69;5055755;28;20486;-71
2023/07/29 11:15:19;;;;;;;6.20;4.10;;;;;;;23.63;66.94;95760.59;5057522;28;20808;-72
2023/07/29 11:17:48;;;;;;;8.90;4.23;;;;;;;23.68;66.72;95753.72;5061417;28;20428;-70
2023/07/29 11:20:15;;;;;;;9.30;4.37;;;;;;;23.78;65.13;95752.75;5061427;28;20541;-71
2023/07/29 11:22:41;;;;;;;8.93;4.50;;;;;;;23.75;65.00;95745.06;5060184;28;20479;-71
2023/07/29 11:25:08;;;;;;;9.13;4.10;;;;;;;23.90;64.84;95745.25;5062175;28;20447;-71
2023/07/29 11:27:34;;;;;;;9.17;4.20;;;;;;;23.85;61.97;95735.84;5059290;28;21080;-71